CheckWX is a tool to help pilots better visualize weather data.  It is not intended as a substitute for an official pre-flight weather briefing.

09:03:26 UTC

HEMM METAR
Mersa Matruh Airport
Mersa Matruh, Egypt
Current

2 hours ago

HEMM 310700Z 13011KT CAVOK 23/09 Q1017 NOSIG
Observed
May-31 @ 07:00 UTC
Wind
  • 130° at 11 KTS
Visibility
10,000+ meters
Flight Rules
VFR
Cloud Levels
  • Clear skies
Temperature
23°C / 73°F
Dewpoint
C / 48°F
Humidity
41%
Altimeter
30.03" Hg
Pressure
1016.92 hPa
Previous

3 hours ago

HEMM 310600Z 14012KT CAVOK 20/12 Q1017 NOSIG
Observed
May-31 @ 06:00 UTC
Wind
  • 140° at 12 KTS
Visibility
10,000+ meters
Flight Rules
VFR
Cloud Levels
  • Clear skies
Temperature
20°C / 68°F
Dewpoint
12°C / 54°F
Humidity
60%
Altimeter
30.03" Hg
Pressure
1016.92 hPa
Previous

4 hours ago

HEMM 310500Z 13008KT CAVOK 19/13 Q1016 NOSIG
Observed
May-31 @ 05:00 UTC
Wind
  • 130° at 8 KTS
Visibility
10,000+ meters
Flight Rules
VFR
Cloud Levels
  • Clear skies
Temperature
19°C / 66°F
Dewpoint
13°C / 55°F
Humidity
68%
Altimeter
30" Hg
Pressure
1015.92 hPa